createdAt,value
2023-05-04T00:00:04.109Z,73.70
2023-05-04T00:02:32.402Z,74.30
2023-05-04T00:04:59.914Z,74.30
2023-05-04T00:07:27.375Z,74.60
2023-05-04T00:09:55.691Z,75.70
2023-05-04T00:12:23.248Z,75.70
2023-05-04T00:14:50.778Z,76.00
2023-05-04T00:17:18.305Z,76.40
2023-05-04T00:19:45.868Z,76.80
2023-05-04T00:22:13.404Z,77.20
2023-05-04T00:24:40.938Z,77.80
2023-05-04T00:27:08.512Z,78.30
2023-05-04T00:29:36.043Z,79.40
2023-05-04T00:32:03.736Z,79.00
2023-05-04T00:34:31.129Z,79.40
2023-05-04T00:36:58.656Z,79.80
2023-05-04T00:39:26.189Z,80.30
2023-05-04T00:41:53.752Z,80.80
2023-05-04T00:44:21.306Z,81.10
2023-05-04T00:46:48.862Z,81.50
2023-05-04T00:49:17.538Z,82.90
2023-05-04T00:51:45.071Z,82.80
2023-05-04T00:54:13.365Z,84.00
2023-05-04T00:56:41.730Z,84.60
2023-05-04T00:59:09.244Z,84.60
2023-05-04T01:01:36.791Z,85.20
2023-05-04T01:04:04.506Z,85.90
2023-05-04T01:06:40.810Z,87.00
2023-05-04T01:09:08.401Z,86.50
2023-05-04T01:11:41.991Z,87.20
2023-05-04T01:14:09.535Z,88.00
2023-05-04T01:16:37.118Z,88.90
2023-05-04T01:19:04.658Z,89.70
2023-05-04T01:21:32.169Z,90.20
2023-05-04T01:24:00.469Z,90.80
2023-05-04T01:26:28.057Z,90.80
2023-05-04T01:29:14.285Z,91.20
2023-05-04T01:31:41.838Z,91.50
2023-05-04T01:34:09.365Z,91.80
2023-05-04T01:36:36.896Z,91.90
2023-05-04T01:39:04.464Z,92.20
2023-05-04T01:41:32.011Z,92.40
2023-05-04T01:44:00.306Z,92.90
2023-05-04T01:46:28.192Z,92.90
2023-05-04T01:48:55.721Z,93.10
2023-05-04T01:51:24.060Z,94.00
2023-05-04T01:53:51.886Z,94.30
2023-05-04T01:56:19.408Z,93.80
2023-05-04T01:58:46.940Z,94.00
2023-05-04T02:01:14.552Z,94.10
2023-05-04T02:03:42.111Z,94.30
2023-05-04T02:06:09.588Z,94.70
2023-05-04T02:08:37.161Z,95.00
2023-05-04T02:11:04.696Z,95.40
2023-05-04T02:13:32.233Z,95.70
2023-05-04T02:15:59.875Z,96.20
2023-05-04T02:18:27.328Z,96.40
2023-05-04T02:20:55.633Z,97.00
2023-05-04T02:23:23.511Z,97.00
2023-05-04T02:25:51.038Z,97.40
2023-05-04T02:28:19.356Z,98.20
2023-05-04T02:30:47.506Z,98.20
2023-05-04T02:33:15.046Z,98.50
2023-05-04T02:35:43.338Z,99.20
2023-05-04T02:38:10.909Z,99.20
2023-05-04T02:40:38.436Z,99.60
2023-05-04T02:43:06.739Z,99.90
2023-05-04T02:45:36.136Z,99.90
2023-05-04T02:48:03.603Z,99.90
2023-05-04T02:50:31.091Z,99.90
2023-05-04T02:52:58.649Z,99.90
2023-05-04T02:55:26.179Z,99.90
2023-05-04T02:57:53.712Z,99.90
2023-05-04T03:00:22.826Z,99.90
2023-05-04T03:02:50.406Z,99.90
2023-05-04T03:05:18.669Z,99.90
2023-05-04T03:07:46.241Z,99.90
2023-05-04T03:10:13.764Z,99.90
2023-05-04T03:12:42.074Z,99.90
2023-05-04T03:15:09.637Z,99.90
2023-05-04T03:17:37.285Z,99.90
2023-05-04T03:20:04.993Z,99.90
2023-05-04T03:22:32.733Z,99.90
2023-05-04T03:25:00.276Z,99.90
2023-05-04T03:27:27.804Z,99.90
2023-05-04T03:29:56.130Z,99.90
2023-05-04T03:32:23.655Z,99.90
2023-05-04T03:34:51.177Z,99.90
2023-05-04T03:37:19.318Z,99.90
2023-05-04T03:39:46.849Z,99.90
2023-05-04T03:42:14.372Z,99.90
2023-05-04T03:44:41.926Z,99.90
2023-05-04T03:47:09.688Z,99.90
2023-05-04T03:49:37.200Z,99.90
2023-05-04T03:52:04.777Z,99.90
2023-05-04T03:54:32.339Z,99.90
2023-05-04T03:56:59.817Z,99.90
2023-05-04T03:59:27.392Z,99.90
2023-05-04T04:01:55.710Z,99.90
2023-05-04T04:04:23.328Z,99.90
2023-05-04T04:06:51.590Z,99.90
2023-05-04T04:09:19.112Z,99.90
2023-05-04T04:11:46.639Z,99.90
2023-05-04T04:14:14.234Z,99.90
2023-05-04T04:16:41.855Z,99.90
2023-05-04T04:19:09.459Z,99.90
2023-05-04T04:21:36.879Z,99.90
2023-05-04T04:24:05.207Z,99.90
2023-05-04T04:26:32.731Z,99.90
2023-05-04T04:29:00.312Z,99.90
2023-05-04T04:31:27.920Z,99.90
2023-05-04T04:33:55.382Z,99.90
2023-05-04T04:36:24.715Z,99.90
2023-05-04T04:38:52.255Z,99.90
2023-05-04T04:41:19.792Z,99.90
2023-05-04T04:43:47.345Z,99.90
2023-05-04T04:46:14.881Z,99.90
2023-05-04T04:48:42.409Z,99.90
2023-05-04T04:51:12.711Z,99.90
2023-05-04T04:53:40.244Z,99.90
2023-05-04T04:56:07.778Z,99.90
2023-05-04T04:58:35.370Z,99.90
2023-05-04T05:01:03.767Z,99.90
2023-05-04T05:03:31.203Z,99.90
2023-05-04T05:05:59.328Z,99.90
2023-05-04T05:08:26.877Z,99.90
2023-05-04T05:10:54.399Z,99.90
2023-05-04T05:13:22.743Z,99.90
2023-05-04T05:15:50.259Z,99.90
2023-05-04T05:18:17.773Z,99.90
2023-05-04T05:20:45.358Z,99.90
2023-05-04T05:23:13.646Z,99.90
2023-05-04T05:25:41.174Z,99.90
2023-05-04T05:28:08.757Z,99.90
2023-05-04T05:30:37.075Z,99.90
2023-05-04T05:33:04.622Z,99.90
2023-05-04T05:35:32.905Z,99.90
2023-05-04T05:38:00.451Z,99.90
2023-05-04T05:40:27.975Z,99.90
2023-05-04T05:42:57.116Z,99.90
2023-05-04T05:45:24.687Z,99.90
2023-05-04T05:47:52.984Z,99.90
2023-05-04T05:50:20.517Z,99.90
2023-05-04T05:52:48.127Z,99.90
2023-05-04T05:55:15.600Z,99.90
2023-05-04T05:57:43.161Z,99.90
2023-05-04T06:00:10.834Z,99.90
2023-05-04T06:02:38.407Z,99.90
2023-05-04T06:05:06.092Z,99.90
2023-05-04T06:07:34.245Z,99.90
2023-05-04T06:10:01.776Z,99.90
2023-05-04T06:12:30.143Z,99.90
2023-05-04T06:14:57.654Z,99.90
2023-05-04T06:17:25.298Z,99.90
2023-05-04T06:19:52.764Z,99.90
2023-05-04T06:22:20.281Z,99.90
2023-05-04T06:24:47.810Z,99.90
2023-05-04T06:27:15.370Z,99.90
2023-05-04T06:29:42.929Z,99.90
2023-05-04T06:32:10.542Z,99.90
2023-05-04T06:34:38.029Z,99.90
2023-05-04T06:39:43.150Z,99.90
2023-05-04T06:42:10.706Z,99.90
2023-05-04T06:44:38.246Z,99.90
2023-05-04T06:47:06.575Z,99.90
2023-05-04T06:49:34.104Z,99.90
2023-05-04T06:52:01.977Z,99.80
2023-05-04T06:54:29.574Z,99.70
2023-05-04T06:56:57.120Z,98.70
2023-05-04T06:59:24.652Z,98.00
2023-05-04T07:01:52.255Z,97.60
2023-05-04T07:04:22.284Z,97.20
2023-05-04T07:06:50.606Z,97.10
2023-05-04T07:09:21.233Z,97.20
2023-05-04T07:11:48.811Z,97.20
2023-05-04T07:14:17.069Z,97.40
2023-05-04T07:16:44.754Z,97.40
2023-05-04T07:19:12.157Z,97.40
2023-05-04T07:21:40.482Z,97.10
2023-05-04T07:24:08.043Z,96.90
2023-05-04T07:26:35.582Z,96.70
2023-05-04T07:29:03.098Z,96.30
2023-05-04T07:31:31.640Z,95.90
2023-05-04T07:33:58.980Z,95.80
2023-05-04T07:36:26.543Z,95.60
2023-05-04T07:38:54.872Z,95.10
2023-05-04T07:41:22.409Z,95.10
2023-05-04T07:43:49.941Z,95.00
2023-05-04T07:46:17.525Z,94.80
2023-05-04T07:48:45.049Z,94.50
2023-05-04T07:51:15.297Z,94.30
2023-05-04T07:53:43.226Z,94.20
2023-05-04T07:56:13.685Z,93.70
2023-05-04T07:58:41.259Z,93.40
2023-05-04T08:01:09.102Z,92.80
2023-05-04T08:03:36.629Z,92.50
2023-05-04T08:06:04.920Z,91.80
2023-05-04T08:08:32.529Z,91.80
2023-05-04T08:11:11.624Z,91.20
2023-05-04T08:13:28.311Z,90.90
2023-05-04T08:15:55.896Z,90.90
2023-05-04T08:18:23.515Z,90.80
2023-05-04T08:20:51.036Z,90.80
2023-05-04T08:23:18.597Z,90.30
2023-05-04T08:25:46.139Z,89.50
2023-05-04T08:28:13.679Z,88.90
2023-05-04T08:30:41.253Z,87.80
2023-05-04T08:33:08.841Z,86.60
2023-05-04T08:35:36.322Z,86.30
2023-05-04T08:38:04.665Z,84.50
2023-05-04T08:40:34.721Z,84.50
2023-05-04T08:43:03.017Z,81.40
2023-05-04T08:45:30.920Z,81.20
2023-05-04T08:47:58.436Z,80.80
2023-05-04T08:50:26.722Z,79.70
2023-05-04T08:52:54.584Z,79.70
2023-05-04T08:55:22.151Z,78.50
2023-05-04T08:57:51.170Z,77.00
2023-05-04T09:00:17.998Z,76.90
2023-05-04T09:02:45.622Z,76.50
2023-05-04T09:05:13.819Z,76.20
2023-05-04T09:07:41.708Z,76.30
2023-05-04T09:10:09.350Z,75.90
2023-05-04T09:12:36.916Z,75.20
2023-05-04T09:15:19.290Z,74.00
2023-05-04T09:18:02.327Z,72.00
2023-05-04T09:20:30.645Z,71.00
2023-05-04T09:23:06.635Z,71.00
2023-05-04T09:25:34.977Z,70.50
2023-05-04T09:28:02.512Z,70.50
2023-05-04T09:30:30.062Z,70.10
2023-05-04T09:32:57.651Z,69.10
2023-05-04T09:35:33.239Z,68.40
2023-05-04T09:37:55.876Z,68.40
2023-05-04T09:40:38.392Z,68.20
2023-05-04T09:43:06.827Z,68.30
2023-05-04T09:45:40.071Z,68.20
2023-05-04T09:48:22.498Z,67.40
2023-05-04T09:50:50.031Z,67.80
2023-05-04T09:53:18.356Z,66.10
2023-05-04T09:55:45.964Z,66.00
2023-05-04T09:58:14.551Z,63.70
2023-05-04T10:00:42.891Z,63.50
2023-05-04T10:03:10.480Z,63.40
2023-05-04T10:05:37.996Z,63.60
2023-05-04T10:08:05.508Z,63.20
2023-05-04T10:10:34.147Z,62.60
2023-05-04T10:13:01.696Z,62.50
2023-05-04T10:15:29.237Z,62.40
2023-05-04T10:18:30.200Z,62.60
2023-05-04T10:20:57.726Z,62.40
2023-05-04T10:23:30.943Z,62.70
2023-05-04T10:26:08.036Z,61.10
2023-05-04T10:28:44.081Z,61.00
2023-05-04T10:31:11.671Z,60.50
2023-05-04T10:33:42.071Z,61.30
2023-05-04T10:36:09.579Z,61.20
2023-05-04T10:38:37.950Z,59.30
2023-05-04T10:41:14.404Z,59.30
2023-05-04T10:43:42.343Z,57.60
2023-05-04T10:46:18.856Z,56.50
2023-05-04T10:48:47.377Z,55.90
2023-05-04T10:51:20.650Z,55.00
2023-05-04T10:53:48.941Z,54.30
2023-05-04T10:56:20.327Z,54.10
2023-05-04T10:58:47.854Z,54.00
2023-05-04T11:01:15.415Z,53.90
2023-05-04T11:03:44.100Z,52.30
2023-05-04T11:06:23.361Z,52.30
2023-05-04T11:08:47.840Z,51.90
2023-05-04T11:11:15.423Z,52.00
2023-05-04T11:13:42.952Z,52.80
2023-05-04T11:16:10.488Z,52.20
2023-05-04T11:18:38.310Z,52.00
2023-05-04T11:21:05.846Z,52.40
2023-05-04T11:23:33.355Z,53.10
2023-05-04T11:26:08.004Z,52.70
2023-05-04T11:28:37.770Z,52.70
2023-05-04T11:31:14.407Z,52.20
2023-05-04T11:33:45.585Z,52.90
2023-05-04T11:36:13.112Z,52.90
2023-05-04T11:38:40.679Z,53.20
2023-05-04T11:41:08.202Z,53.20
2023-05-04T11:43:35.737Z,53.10
2023-05-04T11:46:04.156Z,52.80
2023-05-04T11:48:31.606Z,52.80
2023-05-04T11:50:59.149Z,53.10
2023-05-04T11:53:27.487Z,51.70
2023-05-04T11:55:55.016Z,51.70
2023-05-04T11:58:25.488Z,52.20
2023-05-04T12:00:56.916Z,51.80
2023-05-04T12:03:43.815Z,52.20
2023-05-04T12:05:58.813Z,51.60
2023-05-04T12:08:34.566Z,51.60
2023-05-04T12:11:17.839Z,51.00
2023-05-04T12:13:45.396Z,50.90
2023-05-04T12:16:13.017Z,51.00
2023-05-04T12:18:40.478Z,51.10
2023-05-04T12:21:14.541Z,50.70
2023-05-04T12:23:42.073Z,50.70
2023-05-04T12:26:09.590Z,51.00
2023-05-04T12:28:37.178Z,51.40
2023-05-04T12:31:05.484Z,51.20
2023-05-04T12:33:32.993Z,51.20
2023-05-04T12:36:01.386Z,51.00
2023-05-04T12:38:28.922Z,50.80
2023-05-04T12:40:56.433Z,50.40
2023-05-04T12:43:24.284Z,50.30
2023-05-04T12:45:51.864Z,49.80
2023-05-04T12:48:22.571Z,49.70
2023-05-04T12:50:50.135Z,49.70
2023-05-04T12:53:17.659Z,49.70
2023-05-04T12:55:45.982Z,49.90
2023-05-04T12:58:13.538Z,50.40
2023-05-04T13:00:41.083Z,50.10
2023-05-04T13:03:08.745Z,49.90
2023-05-04T13:05:36.222Z,49.20
2023-05-04T13:08:03.764Z,48.90
2023-05-04T13:10:31.303Z,49.00
2023-05-04T13:12:59.648Z,49.20
2023-05-04T13:15:27.165Z,49.10
2023-05-04T13:17:54.753Z,48.90
2023-05-04T13:20:22.280Z,48.60
2023-05-04T13:22:49.815Z,48.90
2023-05-04T13:25:17.350Z,49.00
2023-05-04T13:27:44.904Z,48.60
2023-05-04T13:30:12.548Z,47.90
2023-05-04T13:32:40.035Z,47.10
2023-05-04T13:35:07.927Z,47.20
2023-05-04T13:37:35.333Z,47.00
2023-05-04T13:40:02.871Z,47.30
2023-05-04T13:42:30.428Z,47.10
2023-05-04T13:44:57.953Z,47.00
2023-05-04T13:47:26.310Z,47.00
2023-05-04T13:49:53.832Z,47.30
2023-05-04T13:52:21.366Z,47.20
2023-05-04T13:54:48.906Z,46.90
2023-05-04T13:57:17.286Z,46.60
2023-05-04T13:59:58.394Z,46.60
2023-05-04T14:02:12.353Z,46.90
2023-05-04T14:04:40.082Z,46.80
2023-05-04T14:07:07.717Z,46.90
2023-05-04T14:09:35.271Z,46.70
2023-05-04T14:12:03.114Z,46.90
2023-05-04T14:14:30.661Z,47.30
2023-05-04T14:16:58.216Z,46.80
2023-05-04T14:19:26.574Z,46.60
2023-05-04T14:21:54.106Z,46.60
2023-05-04T14:24:22.402Z,45.30
2023-05-04T14:26:50.994Z,45.20
2023-05-04T14:29:18.521Z,45.20
2023-05-04T14:31:46.878Z,45.10
2023-05-04T14:34:14.430Z,45.00
2023-05-04T14:36:41.950Z,44.80
2023-05-04T14:39:09.478Z,45.00
2023-05-04T14:41:37.812Z,44.60
2023-05-04T14:44:05.333Z,44.60
2023-05-04T14:46:32.977Z,44.40
2023-05-04T14:49:01.214Z,43.70
2023-05-04T14:51:28.740Z,43.60
2023-05-04T14:53:56.272Z,43.30
2023-05-04T14:56:24.621Z,43.50
2023-05-04T14:58:52.140Z,43.50
2023-05-04T15:01:19.734Z,43.50
2023-05-04T15:03:47.329Z,43.40
2023-05-04T15:06:14.779Z,43.40
2023-05-04T15:08:43.079Z,42.80
2023-05-04T15:11:10.638Z,42.60
2023-05-04T15:13:38.174Z,42.40
2023-05-04T15:16:06.554Z,42.80
2023-05-04T15:18:34.094Z,42.80
2023-05-04T15:21:01.627Z,42.50
2023-05-04T15:23:29.162Z,42.10
2023-05-04T15:25:56.745Z,41.90
2023-05-04T15:28:24.281Z,41.30
2023-05-04T15:30:51.803Z,41.40
2023-05-04T15:33:20.128Z,42.60
2023-05-04T15:35:47.648Z,42.20
2023-05-04T15:38:15.173Z,42.50
2023-05-04T15:40:42.740Z,42.60
2023-05-04T15:43:10.274Z,42.60
2023-05-04T15:45:37.799Z,42.40
2023-05-04T15:48:05.702Z,42.30
2023-05-04T15:50:33.391Z,42.60
2023-05-04T15:53:00.701Z,42.50
2023-05-04T15:55:28.294Z,42.50
2023-05-04T15:57:55.822Z,42.70
2023-05-04T16:00:23.373Z,43.10
2023-05-04T16:02:51.331Z,43.60
2023-05-04T16:05:19.489Z,44.40
2023-05-04T16:07:47.025Z,44.40
2023-05-04T16:10:15.381Z,45.00
2023-05-04T16:12:42.932Z,44.90
2023-05-04T16:15:10.516Z,44.80
2023-05-04T16:17:38.117Z,44.50
2023-05-04T16:20:06.639Z,43.40
2023-05-04T16:22:34.047Z,43.40
2023-05-04T16:25:02.014Z,43.40
2023-05-04T16:27:29.253Z,43.20
2023-05-04T16:29:56.680Z,43.20
2023-05-04T16:32:24.304Z,43.80
2023-05-04T16:34:52.559Z,44.40
2023-05-04T16:37:20.105Z,44.40
2023-05-04T16:39:48.453Z,45.10
2023-05-04T16:42:15.958Z,45.10
2023-05-04T16:44:43.487Z,45.70
2023-05-04T16:47:11.836Z,46.50
2023-05-04T16:49:39.355Z,46.10
2023-05-04T16:52:06.885Z,46.20
2023-05-04T16:54:35.238Z,46.50
2023-05-04T16:57:02.772Z,46.50
2023-05-04T16:59:30.312Z,46.80
2023-05-04T17:01:57.932Z,46.80
2023-05-04T17:04:25.398Z,47.00
2023-05-04T17:06:53.699Z,47.70
2023-05-04T17:09:21.292Z,47.60
2023-05-04T17:11:48.978Z,47.80
2023-05-04T17:14:17.228Z,47.90
2023-05-04T17:16:44.803Z,47.90
2023-05-04T17:19:12.351Z,48.00
2023-05-04T17:21:39.879Z,48.00
2023-05-04T17:24:07.461Z,48.30
2023-05-04T17:26:34.983Z,48.70
2023-05-04T17:29:02.511Z,49.00
2023-05-04T17:31:30.516Z,49.40
2023-05-04T17:33:58.005Z,49.40
2023-05-04T17:36:25.539Z,49.80
2023-05-04T17:38:53.096Z,49.90
2023-05-04T17:41:20.657Z,50.10
2023-05-04T17:43:48.966Z,51.00
2023-05-04T17:46:16.527Z,50.90
2023-05-04T17:48:44.030Z,51.40
2023-05-04T17:51:12.343Z,52.30
2023-05-04T17:53:40.212Z,52.30
2023-05-04T17:56:07.786Z,52.70
2023-05-04T17:58:35.283Z,53.10
2023-05-04T18:01:02.848Z,53.60
2023-05-04T18:03:31.207Z,54.30
2023-05-04T18:05:58.680Z,54.30
2023-05-04T18:08:27.027Z,55.00
2023-05-04T18:10:54.549Z,54.90
2023-05-04T18:13:22.166Z,55.20
2023-05-04T18:15:50.436Z,56.00
2023-05-04T18:18:17.950Z,56.00
2023-05-04T18:20:45.485Z,56.20
2023-05-04T18:23:13.095Z,56.60
2023-05-04T18:25:40.608Z,57.00
2023-05-04T18:28:08.140Z,57.40
2023-05-04T18:30:35.703Z,57.80
2023-05-04T18:33:04.022Z,58.40
2023-05-04T18:35:32.292Z,58.70
2023-05-04T18:37:59.872Z,58.60
2023-05-04T18:40:27.408Z,59.00
2023-05-04T18:42:54.958Z,59.40
2023-05-04T18:45:22.840Z,59.60
2023-05-04T18:47:50.430Z,59.70
2023-05-04T18:50:17.903Z,59.90
2023-05-04T18:52:45.483Z,60.30
2023-05-04T18:55:13.809Z,61.40
2023-05-04T18:57:41.336Z,61.40
2023-05-04T19:00:09.969Z,61.80
2023-05-04T19:02:37.389Z,62.30
2023-05-04T19:05:04.964Z,62.70
2023-05-04T19:07:32.506Z,63.40
2023-05-04T19:10:00.028Z,63.90
2023-05-04T19:12:27.546Z,64.70
2023-05-04T19:14:55.127Z,65.40
2023-05-04T19:17:22.733Z,66.30
2023-05-04T19:19:50.190Z,66.70
2023-05-04T19:22:17.767Z,67.40
2023-05-04T19:24:45.287Z,67.80
2023-05-04T19:27:13.581Z,68.50
2023-05-04T19:29:41.180Z,68.50
2023-05-04T19:32:22.723Z,68.80
2023-05-04T19:34:36.229Z,69.30
2023-05-04T19:37:03.847Z,69.70
2023-05-04T19:39:31.376Z,70.20
2023-05-04T19:41:58.897Z,70.60
2023-05-04T19:44:26.470Z,71.00
2023-05-04T19:46:54.032Z,71.50
2023-05-04T19:49:21.516Z,72.50
2023-05-04T19:51:49.128Z,73.40
2023-05-04T19:54:16.663Z,74.00
2023-05-04T19:56:44.190Z,74.50
2023-05-04T19:59:11.763Z,75.80
2023-05-04T20:01:39.290Z,75.50
2023-05-04T20:04:07.582Z,76.50
2023-05-04T20:06:35.156Z,76.50
2023-05-04T20:09:02.689Z,77.20
2023-05-04T20:11:30.232Z,77.20
2023-05-04T20:13:58.589Z,79.00
2023-05-04T20:16:26.141Z,78.40
2023-05-04T20:18:53.687Z,79.40
2023-05-04T20:21:21.269Z,79.70
2023-05-04T20:23:48.799Z,79.30
2023-05-04T20:26:16.352Z,79.40
2023-05-04T20:28:43.926Z,79.70
2023-05-04T20:31:11.463Z,79.40
2023-05-04T20:33:38.996Z,79.60
2023-05-04T20:36:07.373Z,80.30
2023-05-04T20:38:34.909Z,80.30
2023-05-04T20:41:05.302Z,80.80
2023-05-04T20:43:32.876Z,81.10
2023-05-04T20:46:00.452Z,81.80
2023-05-04T20:48:27.969Z,82.50
2023-05-04T20:51:06.600Z,83.00
2023-05-04T20:53:23.054Z,83.60
2023-05-04T20:55:51.357Z,84.50
2023-05-04T20:58:18.924Z,84.40
2023-05-04T21:00:46.473Z,85.10
2023-05-04T21:03:14.077Z,85.90
2023-05-04T21:05:42.363Z,87.10
2023-05-04T21:08:09.897Z,87.00
2023-05-04T21:10:37.439Z,87.50
2023-05-04T21:13:05.825Z,88.10
2023-05-04T21:15:33.318Z,89.00
2023-05-04T21:18:01.653Z,88.30
2023-05-04T21:20:30.310Z,89.00
2023-05-04T21:22:57.843Z,89.00
2023-05-04T21:25:26.157Z,90.30
2023-05-04T21:27:53.720Z,90.00
2023-05-04T21:30:21.276Z,90.20
2023-05-04T21:32:48.828Z,90.60
2023-05-04T21:35:17.425Z,91.10
2023-05-04T21:37:44.942Z,91.00
2023-05-04T21:40:13.277Z,91.60
2023-05-04T21:42:40.827Z,91.60
2023-05-04T21:45:08.483Z,91.80
2023-05-04T21:47:36.078Z,92.20
2023-05-04T21:50:04.361Z,92.80
2023-05-04T21:52:31.884Z,92.80
2023-05-04T21:54:59.416Z,93.10
2023-05-04T21:57:26.999Z,93.40
2023-05-04T21:59:54.541Z,93.70
2023-05-04T22:02:22.082Z,93.90
2023-05-04T22:04:50.406Z,94.20
2023-05-04T22:07:17.946Z,94.20
2023-05-04T22:09:45.475Z,94.40
2023-05-04T22:12:13.829Z,94.90
2023-05-04T22:14:42.537Z,94.90
2023-05-04T22:17:08.979Z,95.30
2023-05-04T22:19:37.272Z,95.70
2023-05-04T22:22:04.828Z,96.00
2023-05-04T22:24:33.092Z,96.70
2023-05-04T22:27:00.680Z,96.70
2023-05-04T22:29:28.215Z,97.00
2023-05-04T22:31:55.727Z,97.30
2023-05-04T22:34:23.842Z,97.60
2023-05-04T22:36:51.365Z,98.30
2023-05-04T22:39:18.908Z,98.90
2023-05-04T22:41:46.844Z,98.70
2023-05-04T22:44:14.417Z,99.20
2023-05-04T22:46:42.011Z,98.70
2023-05-04T22:49:10.275Z,98.40
2023-05-04T22:51:37.795Z,98.40
2023-05-04T22:54:05.333Z,98.60
2023-05-04T22:56:34.441Z,99.00
2023-05-04T22:59:01.980Z,98.90
2023-05-04T23:01:29.526Z,99.10
2023-05-04T23:03:57.242Z,99.30
2023-05-04T23:06:24.596Z,99.60
2023-05-04T23:08:52.123Z,99.90
2023-05-04T23:11:22.394Z,99.90
2023-05-04T23:13:49.922Z,99.60
2023-05-04T23:16:17.494Z,99.60
2023-05-04T23:18:46.167Z,99.90
2023-05-04T23:21:13.698Z,99.90
2023-05-04T23:23:41.999Z,99.90
2023-05-04T23:26:10.588Z,99.90
2023-05-04T23:28:38.847Z,99.90
2023-05-04T23:31:06.379Z,99.90
2023-05-04T23:33:33.946Z,99.90
2023-05-04T23:36:02.264Z,99.90
2023-05-04T23:38:29.785Z,99.90
2023-05-04T23:40:58.188Z,99.90
2023-05-04T23:43:25.720Z,99.90
2023-05-04T23:46:00.057Z,99.90
2023-05-04T23:48:27.575Z,99.90
2023-05-04T23:50:55.110Z,99.90
2023-05-04T23:53:22.681Z,99.90
2023-05-04T23:56:02.647Z,99.90
2023-05-04T23:58:27.376Z,99.90
